Edna, Oklahoma
Current Conditions -  °F | °C
As of 3:55 PM on Friday 28 Nov 2014 (Local Time) from KOKM Reporting Station
Clear Clear  
Wind Chill: 66°   Ceiling: Unl
Heat Index: 66°   Visibility: 10mi
Dew Point: 41°   Wind: 16mph
Humidity: 41%   Direction: 190°S
Pressure: 29.92"   Gusts: 25mph
Location:  35.7718°N, 96.3174°W
Report Text: KOKM 282155Z AUTO 19014G22KT 10SM CLR 19/05 A2992 RMK AO2 T01870050
Loading
Personal Weather Stations






























Interactive Weather Map New forecast layout! Learn more

10-Day Weather Forecast

Advertisements
Track Severe Weather on mobile